KPBF/PBF METAR and TAF weather

Enter ICAO airport designator
Station Type Date Time Source
KPBF METAR 2019/05/25 08:53 UTC NOAA

KPBF 250853Z AUTO 18004KT 10SM FEW050 FEW060 21/18 A3007 RMK AO2 SLP179 T02110183 50001


Station Type Date Time Source
KPBF Decoded METAR 2019/05/25 08:53 UTC NOAA

PINE BLUFF GRIDER FIELD, AR, United States (KPBF) 34-11N 091-56W 62M
May 25, 2019 - 04:53 AM EDT / 2019.05.25 0853 UTC
Wind: from the S (180 degrees) at 5 MPH (4 KT):0
Visibility: 10 mile(s):0
Sky conditions: mostly clear
Temperature: 70.0 F (21.1 C)
Dew Point: 64.9 F (18.3 C)
Relative Humidity: 84%
Pressure (altimeter): 30.07 in. Hg (1018 hPa)
Pressure tendency: 0.00 inches (0.1 hPa) higher than three hours ago
ob: KPBF 250853Z AUTO 18004KT 10SM FEW050 FEW060 21/18 A3007 RMK AO2 SLP179 T02110183 50001
cycle: 9

Station Type Date Time Source
KPBF TAF 2019/05/25 06:33 UTC NOAA

TAF KPBF 250530Z 2506/2606 18005KT P6SM SCT250
FM251300 21009KT P6SM BKN250
FM260100 17003KT P6SM SCT250

Example: see airport list